Time;durP1;ratioP1;P1;durP2;ratioP2;P2;SDS_P1;SDS_P2;PMS_P1;PMS_P2;Temp;Humidity;BMP_temperature;BMP_pressure;BME280_temperature;BME280_humidity;BME280_pressure;Samples;Min_cycle;Max_cycle;Signal;HPM_P1;HPM_P2
2022/05/06 00:01:08;;;;;;;;;;;;;;;;;;6141184;23;19916;-58
2022/05/06 00:03:38;;;;;;;;;;;;;;;;;;6142167;23;20296;-58
2022/05/06 00:06:05;;;;;;;;;;;;;;;;;;6141313;23;19920;-59
2022/05/06 00:08:30;;;;;;;;;;;;;;;;;;6141780;23;19917;-58
2022/05/06 00:10:56;;;;;;;;;;;;;;;;;;6141434;23;19928;-56
2022/05/06 00:13:21;;;;;;;;;;;;;;;;;;6141927;23;19912;-57
2022/05/06 00:15:47;;;;;;;;;;;;;;;;;;6141163;23;19913;-56
2022/05/06 00:18:13;;;;;;;;;;;;;;;;;;6141521;23;19992;-56
2022/05/06 00:20:43;;;;;;;;;;;;;;;;;;6132850;23;19908;-58
2022/05/06 00:23:10;;;;;;;;;;;;;;;;;;6141812;23;19916;-58
2022/05/06 00:25:38;;;;;;;;;;;;;;;;;;6243806;22;19932;-56
2022/05/06 00:28:06;;;;;;;;;;;;;;;;;;6235493;22;19971;-57
2022/05/06 00:30:31;;;;;;;;;;;;;;;;;;6142271;23;20332;-57
2022/05/06 00:32:59;;;;;;;;;;;;;;;;;;6233803;22;19909;-57
2022/05/06 00:35:25;;;;;;;;;;;;;;;;;;6141835;23;19987;-57
2022/05/06 00:37:51;;;;;;;;;;;;;;;;;;6243508;22;19908;-57
2022/05/06 00:40:16;;;;;;;;;;;;;;;;;;6234663;22;19921;-57
2022/05/06 00:42:41;;;;;;;;;;;;;;;;;;6234602;22;19908;-57
2022/05/06 00:45:07;;;;;;;;;;;;;;;;;;6142778;23;19912;-57
2022/05/06 00:47:33;;;;;;;;;;;;;;;;;;6208699;23;20213;-56
2022/05/06 00:50:01;;;;;;;;;;;;;;;;;;6245016;22;19913;-56
2022/05/06 00:52:27;;;;;;;;;;;;;;;;;;6141657;23;19971;-57
2022/05/06 00:54:52;;;;;;;;;;;;;;;;;;6209714;23;20376;-56
2022/05/06 00:57:20;;;;;;;;;;;;;;;;;;6243731;22;19913;-58
2022/05/06 01:02:29;;;;;;;;;;;;;;;;;;6141457;23;19947;-57
2022/05/06 01:04:56;;;;;;;;;;;;;;;;;;6242698;22;19928;-57
2022/05/06 01:07:24;;;;;;;;;;;;;;;;;;6142602;23;19997;-56
2022/05/06 01:09:51;;;;;;;;;;;;;;;;;;6242221;22;19987;-56
2022/05/06 01:12:17;;;;;;;;;;;;;;;;;;6129836;23;20015;-57
2022/05/06 01:14:42;;;;;;;;;;;;;;;;;;6242743;22;20660;-57
2022/05/06 01:17:10;;;;;;;;;;;;;;;;;;6141830;23;19928;-57
2022/05/06 01:19:36;;;;;;;;;;;;;;;;;;6234038;22;19919;-57
2022/05/06 01:22:03;;;;;;;;;;;;;;;;;;6234754;22;19905;-57
2022/05/06 01:24:37;;;;;;;;;;;;;;;;;;6142265;23;20262;-57
2022/05/06 01:27:05;;;;;;;;;;;;;;;;;;6208743;22;19916;-58
2022/05/06 01:29:31;;;;;;;;;;;;;;;;;;6233238;22;19924;-58
2022/05/06 01:31:56;;;;;;;;;;;;;;;;;;6208152;23;19937;-57
2022/05/06 01:34:24;;;;;;;;;;;;;;;;;;6233522;22;20689;-57
2022/05/06 01:36:52;;;;;;;;;;;;;;;;;;6241955;22;19936;-57
2022/05/06 01:39:18;;;;;;;;;;;;;;;;;;6210116;23;20368;-57
2022/05/06 01:41:43;;;;;;;;;;;;;;;;;;6243152;22;19920;-57
2022/05/06 01:44:09;;;;;;;;;;;;;;;;;;6241323;22;19917;-57
2022/05/06 01:46:34;;;;;;;;;;;;;;;;;;6233599;22;19913;-57
2022/05/06 01:49:00;;;;;;;;;;;;;;;;;;6243210;22;19923;-58
2022/05/06 01:51:27;;;;;;;;;;;;;;;;;;6143387;23;19917;-58
2022/05/06 01:53:55;;;;;;;;;;;;;;;;;;6233926;22;19916;-58
2022/05/06 01:56:22;;;;;;;;;;;;;;;;;;6235921;22;19982;-58
2022/05/06 01:58:48;;;;;;;;;;;;;;;;;;6235299;22;20358;-56
2022/05/06 02:01:14;;;;;;;;;;;;;;;;;;6132749;23;19932;-57
2022/05/06 02:06:25;;;;;;;;;;;;;;;;;;6142201;23;19913;-57
2022/05/06 02:08:51;;;;;;;;;;;;;;;;;;6141957;23;19915;-58
2022/05/06 02:11:16;;;;;;;;;;;;;;;;;;6143309;23;19931;-58
2022/05/06 02:13:41;;;;;;;;;;;;;;;;;;6140779;23;19944;-58
2022/05/06 02:16:07;;;;;;;;;;;;;;;;;;6143141;23;20003;-58
2022/05/06 02:18:32;;;;;;;;;;;;;;;;;;6131450;23;19913;-58
2022/05/06 02:20:57;;;;;;;;;;;;;;;;;;6142508;23;19967;-56
2022/05/06 02:23:23;;;;;;;;;;;;;;;;;;6141899;23;19920;-58
2022/05/06 02:25:48;;;;;;;;;;;;;;;;;;6142709;23;19940;-58
2022/05/06 02:28:14;;;;;;;;;;;;;;;;;;6209590;23;20414;-58
2022/05/06 02:33:26;;;;;;;;;;;;;;;;;;6234207;22;20396;-57
2022/05/06 02:35:52;;;;;;;;;;;;;;;;;;6209853;23;19919;-56
2022/05/06 02:38:17;;;;;;;;;;;;;;;;;;6234406;22;19982;-58
2022/05/06 02:40:45;;;;;;;;;;;;;;;;;;6246036;22;20092;-59
2022/05/06 02:43:13;;;;;;;;;;;;;;;;;;6131223;23;19943;-57
2022/05/06 02:45:38;;;;;;;;;;;;;;;;;;6141793;23;20621;-58
2022/05/06 02:48:05;;;;;;;;;;;;;;;;;;6142217;23;19912;-57
2022/05/06 02:50:31;;;;;;;;;;;;;;;;;;6233664;22;19984;-58
2022/05/06 02:52:56;;;;;;;;;;;;;;;;;;6141447;23;20359;-58
2022/05/06 02:55:23;;;;;;;;;;;;;;;;;;6142424;23;19973;-57
2022/05/06 02:57:48;;;;;;;;;;;;;;;;;;6143282;23;19965;-57
2022/05/06 03:00:14;;;;;;;;;;;;;;;;;;6131610;23;19912;-58
2022/05/06 03:02:42;;;;;;;;;;;;;;;;;;6234021;22;20785;-57
2022/05/06 03:05:07;;;;;;;;;;;;;;;;;;6143275;23;19923;-57
2022/05/06 03:07:35;;;;;;;;;;;;;;;;;;6235074;22;19936;-57
2022/05/06 03:10:03;;;;;;;;;;;;;;;;;;6234992;22;19995;-57
2022/05/06 03:12:29;;;;;;;;;;;;;;;;;;6235088;22;20035;-58
2022/05/06 03:14:54;;;;;;;;;;;;;;;;;;6234756;22;19966;-58
2022/05/06 03:17:20;;;;;;;;;;;;;;;;;;6141307;23;19917;-58
2022/05/06 03:19:48;;;;;;;;;;;;;;;;;;6141417;23;20333;-57
2022/05/06 03:22:15;;;;;;;;;;;;;;;;;;6140947;23;20317;-58
2022/05/06 03:24:43;;;;;;;;;;;;;;;;;;6234014;22;19913;-58
2022/05/06 03:27:59;;;;;;;;;;;;;;;;;;6130784;22;19920;-59
2022/05/06 03:29:57;;;;;;;;;;;;;;;;;;6235108;22;20332;-58
2022/05/06 03:32:22;;;;;;;;;;;;;;;;;;6232518;22;19966;-57
2022/05/06 03:34:48;;;;;;;;;;;;;;;;;;6233535;22;19920;-57
2022/05/06 03:37:15;;;;;;;;;;;;;;;;;;6241653;22;19916;-57
2022/05/06 03:39:43;;;;;;;;;;;;;;;;;;6244685;22;19912;-57
2022/05/06 03:42:09;;;;;;;;;;;;;;;;;;6132200;23;20301;-57
2022/05/06 03:44:37;;;;;;;;;;;;;;;;;;6141243;23;19940;-58
2022/05/06 03:47:05;;;;;;;;;;;;;;;;;;6141665;23;19999;-58
2022/05/06 03:49:33;;;;;;;;;;;;;;;;;;6231961;22;19991;-58
2022/05/06 03:51:58;;;;;;;;;;;;;;;;;;6209409;23;20642;-58
2022/05/06 03:54:26;;;;;;;;;;;;;;;;;;6241193;22;19912;-58
2022/05/06 03:56:51;;;;;;;;;;;;;;;;;;6244535;22;19998;-58
2022/05/06 03:59:16;;;;;;;;;;;;;;;;;;6142011;23;19940;-58
2022/05/06 04:01:44;;;;;;;;;;;;;;;;;;6232733;22;19974;-58
2022/05/06 04:04:10;;;;;;;;;;;;;;;;;;6208343;22;19921;-58
2022/05/06 04:06:35;;;;;;;;;;;;;;;;;;6244127;22;19909;-58
2022/05/06 04:09:03;;;;;;;;;;;;;;;;;;6139534;23;19913;-57
2022/05/06 04:11:30;;;;;;;;;;;;;;;;;;6209548;23;19924;-58
2022/05/06 04:13:58;;;;;;;;;;;;;;;;;;6208254;22;19932;-58
2022/05/06 04:16:24;;;;;;;;;;;;;;;;;;6234950;22;19912;-59
2022/05/06 04:18:49;;;;;;;;;;;;;;;;;;6233422;22;19916;-59
2022/05/06 04:24:04;;;;;;;;;;;;;;;;;;6141027;23;19913;-59
2022/05/06 04:26:30;;;;;;;;;;;;;;;;;;6233586;22;19912;-59
2022/05/06 04:28:55;;;;;;;;;;;;;;;;;;6244606;22;20014;-59
2022/05/06 04:31:20;;;;;;;;;;;;;;;;;;6234527;22;19912;-59
2022/05/06 04:33:45;;;;;;;;;;;;;;;;;;6232721;22;20012;-59
2022/05/06 04:36:13;;;;;;;;;;;;;;;;;;6208895;23;19908;-59
2022/05/06 04:38:41;;;;;;;;;;;;;;;;;;6138934;23;19965;-59
2022/05/06 04:41:06;;;;;;;;;;;;;;;;;;6243992;22;19916;-59
2022/05/06 04:43:34;;;;;;;;;;;;;;;;;;6234580;22;19913;-58
2022/05/06 04:46:02;;;;;;;;;;;;;;;;;;6240989;22;19936;-58
2022/05/06 04:48:29;;;;;;;;;;;;;;;;;;6233894;22;20353;-58
2022/05/06 04:50:56;;;;;;;;;;;;;;;;;;6233341;22;19913;-59
2022/05/06 04:53:22;;;;;;;;;;;;;;;;;;6130245;23;19913;-58
2022/05/06 04:55:49;;;;;;;;;;;;;;;;;;6142362;23;19952;-59
2022/05/06 04:58:14;;;;;;;;;;;;;;;;;;6234282;22;20262;-60
2022/05/06 05:00:42;;;;;;;;;;;;;;;;;;6245357;22;19916;-59
2022/05/06 05:03:08;;;;;;;;;;;;;;;;;;6142096;23;19985;-59
2022/05/06 05:05:33;;;;;;;;;;;;;;;;;;6233475;22;19912;-61
2022/05/06 05:07:58;;;;;;;;;;;;;;;;;;6243446;22;19912;-60
2022/05/06 05:10:26;;;;;;;;;;;;;;;;;;6141229;23;20231;-59
2022/05/06 05:12:51;;;;;;;;;;;;;;;;;;6140977;23;19920;-59
2022/05/06 05:15:19;;;;;;;;;;;;;;;;;;6244173;22;20321;-58
2022/05/06 05:17:45;;;;;;;;;;;;;;;;;;6233392;22;19913;-58
2022/05/06 05:20:13;;;;;;;;;;;;;;;;;;6142295;23;20280;-58
2022/05/06 05:22:38;;;;;;;;;;;;;;;;;;6129304;23;19909;-59
2022/05/06 05:25:04;;;;;;;;;;;;;;;;;;6208957;23;19983;-59
2022/05/06 05:27:30;;;;;;;;;;;;;;;;;;6232973;22;20004;-60
2022/05/06 05:29:56;;;;;;;;;;;;;;;;;;6245110;22;19919;-59
2022/05/06 05:32:26;;;;;;;;;;;;;;;;;;6234551;22;19931;-59
2022/05/06 05:34:51;;;;;;;;;;;;;;;;;;6233471;22;20413;-59
2022/05/06 05:37:17;;;;;;;;;;;;;;;;;;6131375;22;19992;-59
2022/05/06 05:39:42;;;;;;;;;;;;;;;;;;6243306;22;19943;-59
2022/05/06 05:42:07;;;;;;;;;;;;;;;;;;6139945;23;19917;-58
2022/05/06 05:50:06;;;;;;;;;;;;;;;;;;6131124;23;19912;-59
2022/05/06 05:52:31;;;;;;;;;;;;;;;;;;6138822;23;20047;-59
2022/05/06 05:54:56;;;;;;;;;;;;;;;;;;6235110;22;20712;-59
2022/05/06 05:57:21;;;;;;;;;;;;;;;;;;6242736;22;19919;-59
2022/05/06 05:59:47;;;;;;;;;;;;;;;;;;6130844;22;19916;-59
2022/05/06 06:02:12;;;;;;;;;;;;;;;;;;6233022;22;19909;-60
2022/05/06 06:04:41;;;;;;;;;;;;;;;;;;6231326;22;19939;-58
2022/05/06 06:07:06;;;;;;;;;;;;;;;;;;6140582;23;19909;-60
2022/05/06 06:09:32;;;;;;;;;;;;;;;;;;6130566;22;20647;-61
2022/05/06 06:11:58;;;;;;;;;;;;;;;;;;6233518;22;20343;-58
2022/05/06 06:14:23;;;;;;;;;;;;;;;;;;6244397;22;19974;-59
2022/05/06 06:16:50;;;;;;;;;;;;;;;;;;6233674;22;20236;-59
2022/05/06 06:19:17;;;;;;;;;;;;;;;;;;6140682;23;19917;-62
2022/05/06 06:21:45;;;;;;;;;;;;;;;;;;6233178;22;20637;-59
2022/05/06 06:24:10;;;;;;;;;;;;;;;;;;6234860;22;19919;-60
2022/05/06 06:26:38;;;;;;;;;;;;;;;;;;6232524;22;19909;-59
2022/05/06 06:29:04;;;;;;;;;;;;;;;;;;6140913;23;19927;-59
2022/05/06 06:31:31;;;;;;;;;;;;;;;;;;6129044;23;19921;-59
2022/05/06 06:33:58;;;;;;;;;;;;;;;;;;6237778;22;20328;-59
2022/05/06 06:36:26;;;;;;;;;;;;;;;;;;6235250;22;19908;-58
2022/05/06 06:38:53;;;;;;;;;;;;;;;;;;6142763;23;19984;-59
2022/05/06 06:41:20;;;;;;;;;;;;;;;;;;6235454;22;19915;-59
2022/05/06 06:43:51;;;;;;;;;;;;;;;;;;6210216;22;19916;-58
2022/05/06 06:46:19;;;;;;;;;;;;;;;;;;6128915;23;19912;-59
2022/05/06 06:48:45;;;;;;;;;;;;;;;;;;6130559;23;19912;-59
2022/05/06 06:51:12;;;;;;;;;;;;;;;;;;6234526;22;19929;-58
2022/05/06 06:53:38;;;;;;;;;;;;;;;;;;6130583;23;19915;-60
2022/05/06 06:56:05;;;;;;;;;;;;;;;;;;6233890;22;20035;-59
2022/05/06 06:58:31;;;;;;;;;;;;;;;;;;6234405;22;19947;-59
2022/05/06 07:00:56;;;;;;;;;;;;;;;;;;6142228;23;20004;-58
2022/05/06 07:03:22;;;;;;;;;;;;;;;;;;6130625;23;19966;-59
2022/05/06 07:13:59;;;;;;;;;;;;;;;;;;6142405;23;19912;-59
2022/05/06 07:16:26;;;;;;;;;;;;;;;;;;6140746;23;19913;-59
2022/05/06 07:18:52;;;;;;;;;;;;;;;;;;6244573;22;19916;-59
2022/05/06 07:21:19;;;;;;;;;;;;;;;;;;6209912;23;19912;-59
2022/05/06 07:23:45;;;;;;;;;;;;;;;;;;6135176;23;19913;-59
2022/05/06 07:26:10;;;;;;;;;;;;;;;;;;6244866;22;20135;-60
2022/05/06 07:28:35;;;;;;;;;;;;;;;;;;6233729;22;19990;-59
2022/05/06 07:31:03;;;;;;;;;;;;;;;;;;6141399;23;19944;-59
2022/05/06 07:33:33;;;;;;;;;;;;;;;;;;6209075;22;19988;-58
2022/05/06 07:35:59;;;;;;;;;;;;;;;;;;6140537;23;19992;-58
2022/05/06 07:38:28;;;;;;;;;;;;;;;;;;6235184;22;19912;-58
2022/05/06 07:40:54;;;;;;;;;;;;;;;;;;6130282;23;19940;-58
2022/05/06 07:43:20;;;;;;;;;;;;;;;;;;6132001;23;20182;-59
2022/05/06 07:45:48;;;;;;;;;;;;;;;;;;6140871;23;19928;-58
2022/05/06 07:48:13;;;;;;;;;;;;;;;;;;6234877;22;19924;-60
2022/05/06 07:50:44;;;;;;;;;;;;;;;;;;6132521;23;20614;-58
2022/05/06 07:53:11;;;;;;;;;;;;;;;;;;6140568;23;19971;-58
2022/05/06 07:55:42;;;;;;;;;;;;;;;;;;6142761;23;20567;-58
2022/05/06 07:58:07;;;;;;;;;;;;;;;;;;6233427;22;19927;-59
2022/05/06 08:00:33;;;;;;;;;;;;;;;;;;6141702;23;20248;-58
2022/05/06 08:05:47;;;;;;;;;;;;;;;;;;6140096;23;19919;-58
2022/05/06 08:08:12;;;;;;;;;;;;;;;;;;6235144;22;19946;-58
2022/05/06 08:10:37;;;;;;;;;;;;;;;;;;6234565;22;19935;-58
2022/05/06 08:13:03;;;;;;;;;;;;;;;;;;6243230;22;19959;-58
2022/05/06 08:15:28;;;;;;;;;;;;;;;;;;6133190;23;19908;-58
2022/05/06 08:17:56;;;;;;;;;;;;;;;;;;6234041;22;19908;-58
2022/05/06 08:20:21;;;;;;;;;;;;;;;;;;6245298;22;19933;-58
2022/05/06 08:22:49;;;;;;;;;;;;;;;;;;6207924;22;19940;-58
2022/05/06 08:25:16;;;;;;;;;;;;;;;;;;6209617;22;19915;-58
2022/05/06 08:27:42;;;;;;;;;;;;;;;;;;6253448;22;19922;-61
2022/05/06 08:30:10;;;;;;;;;;;;;;;;;;6256980;22;20062;-58
2022/05/06 08:32:36;;;;;;;;;;;;;;;;;;6266091;22;19993;-60
2022/05/06 08:35:03;;;;;;;;;;;;;;;;;;6265848;22;20015;-59
2022/05/06 08:37:28;;;;;;;;;;;;;;;;;;6255258;22;19911;-58
2022/05/06 08:39:53;;;;;;;;;;;;;;;;;;6255612;22;19938;-58
2022/05/06 08:42:19;;;;;;;;;;;;;;;;;;6228740;22;20006;-59
2022/05/06 08:52:59;;;;;;;;;;;;;;;;;;6255420;22;19998;-59
2022/05/06 08:55:29;;;;;;;;;;;;;;;;;;6229927;22;19907;-60
2022/05/06 08:57:54;;;;;;;;;;;;;;;;;;6265324;22;19938;-60
2022/05/06 09:00:22;;;;;;;;;;;;;;;;;;6266418;22;19961;-61
2022/05/06 09:02:48;;;;;;;;;;;;;;;;;;6266134;22;20024;-60
2022/05/06 09:05:16;;;;;;;;;;;;;;;;;;6267322;22;20505;-61
2022/05/06 09:07:46;;;;;;;;;;;;;;;;;;6228841;22;19911;-61
2022/05/06 09:10:14;;;;;;;;;;;;;;;;;;6266408;22;20395;-60
2022/05/06 09:12:44;;;;;;;;;;;;;;;;;;6265334;22;20387;-61
2022/05/06 09:17:58;;;;;;;;;;;;;;;;;;6253912;22;19927;-60
2022/05/06 09:20:24;;;;;;;;;;;;;;;;;;6265218;22;19919;-60
2022/05/06 09:22:53;;;;;;;;;;;;;;;;;;6254125;22;19997;-61
2022/05/06 09:25:21;;;;;;;;;;;;;;;;;;6230282;22;20278;-61
2022/05/06 09:27:51;;;;;;;;;;;;;;;;;;6229136;22;19915;-61
2022/05/06 09:30:22;;;;;;;;;;;;;;;;;;6253996;22;19922;-62
2022/05/06 09:32:47;;;;;;;;;;;;;;;;;;6266052;22;20337;-61
2022/05/06 09:35:13;;;;;;;;;;;;;;;;;;6255516;22;19910;-61
2022/05/06 09:37:39;;;;;;;;;;;;;;;;;;6254536;22;19957;-60
2022/05/06 09:40:06;;;;;;;;;;;;;;;;;;6255473;22;20063;-60
2022/05/06 09:42:35;;;;;;;;;;;;;;;;;;6263268;22;19915;-60
2022/05/06 09:45:01;;;;;;;;;;;;;;;;;;6228751;22;20338;-60
2022/05/06 09:47:29;;;;;;;;;;;;;;;;;;6265405;22;19915;-60
2022/05/06 09:49:55;;;;;;;;;;;;;;;;;;6253199;22;20503;-60
2022/05/06 09:52:20;;;;;;;;;;;;;;;;;;6255104;22;19919;-59
2022/05/06 09:54:47;;;;;;;;;;;;;;;;;;6252915;22;19911;-60
2022/05/06 09:57:13;;;;;;;;;;;;;;;;;;6267277;22;19911;-59
2022/05/06 09:59:38;;;;;;;;;;;;;;;;;;6228231;22;19907;-60
2022/05/06 10:02:06;;;;;;;;;;;;;;;;;;6253632;22;19915;-60
2022/05/06 10:04:36;;;;;;;;;;;;;;;;;;6263183;22;19982;-61
2022/05/06 10:07:04;;;;;;;;;;;;;;;;;;6254729;22;19939;-60
2022/05/06 10:09:29;;;;;;;;;;;;;;;;;;6253979;22;19911;-60
2022/05/06 10:11:55;;;;;;;;;;;;;;;;;;6258201;22;19961;-61
2022/05/06 10:14:23;;;;;;;;;;;;;;;;;;6255923;22;19907;-61
2022/05/06 10:16:51;;;;;;;;;;;;;;;;;;6268072;22;19986;-61
2022/05/06 10:19:18;;;;;;;;;;;;;;;;;;6267563;22;19982;-59
2022/05/06 10:21:44;;;;;;;;;;;;;;;;;;6256469;22;19969;-61
2022/05/06 10:24:11;;;;;;;;;;;;;;;;;;6268271;22;19911;-62
2022/05/06 10:26:39;;;;;;;;;;;;;;;;;;6255508;22;19922;-59
2022/05/06 10:34:35;;;;;;;;;;;;;;;;;;6267691;22;19911;-60
2022/05/06 10:37:02;;;;;;;;;;;;;;;;;;6257213;22;19953;-61
2022/05/06 10:39:27;;;;;;;;;;;;;;;;;;6230336;22;19915;-62
2022/05/06 10:41:52;;;;;;;;;;;;;;;;;;6268279;22;20555;-60
2022/05/06 10:44:18;;;;;;;;;;;;;;;;;;6256234;22;19943;-60
2022/05/06 10:46:45;;;;;;;;;;;;;;;;;;6254515;22;19912;-61
2022/05/06 10:49:13;;;;;;;;;;;;;;;;;;6266447;22;19993;-61
2022/05/06 10:51:38;;;;;;;;;;;;;;;;;;6228711;22;19911;-60
2022/05/06 10:54:04;;;;;;;;;;;;;;;;;;6267639;22;19903;-61
2022/05/06 10:56:34;;;;;;;;;;;;;;;;;;6257126;22;19949;-62
2022/05/06 10:58:59;;;;;;;;;;;;;;;;;;6256608;22;19926;-60
2022/05/06 11:01:25;;;;;;;;;;;;;;;;;;6256318;22;19911;-60
2022/05/06 11:03:53;;;;;;;;;;;;;;;;;;6266880;22;20076;-61
2022/05/06 11:06:18;;;;;;;;;;;;;;;;;;6265945;22;19913;-60
2022/05/06 11:08:44;;;;;;;;;;;;;;;;;;6265843;22;19911;-60
2022/05/06 11:11:12;;;;;;;;;;;;;;;;;;6267766;22;19907;-61
2022/05/06 11:13:39;;;;;;;;;;;;;;;;;;6254867;22;19957;-61
2022/05/06 11:16:04;;;;;;;;;;;;;;;;;;6254542;22;20367;-65
2022/05/06 11:18:30;;;;;;;;;;;;;;;;;;6254728;22;19918;-65
2022/05/06 11:20:55;;;;;;;;;;;;;;;;;;6227182;22;19950;-63
2022/05/06 11:23:21;;;;;;;;;;;;;;;;;;6253868;22;19922;-62
2022/05/06 11:25:47;;;;;;;;;;;;;;;;;;6229589;22;20535;-61
2022/05/06 11:28:13;;;;;;;;;;;;;;;;;;6264710;22;20308;-62
2022/05/06 11:30:39;;;;;;;;;;;;;;;;;;6267171;22;19977;-64
2022/05/06 11:33:04;;;;;;;;;;;;;;;;;;6264010;22;19907;-62
2022/05/06 11:35:30;;;;;;;;;;;;;;;;;;6230436;22;20474;-61
2022/05/06 11:37:55;;;;;;;;;;;;;;;;;;6254168;22;19911;-62
2022/05/06 11:42:49;;;;;;;;;;;;;;;;;;6256481;22;19969;-62
2022/05/06 11:47:59;;;;;;;;;;;;;;;;;;6257757;22;19915;-62
2022/05/06 11:50:24;;;;;;;;;;;;;;;;;;6265606;22;20573;-63
2022/05/06 11:52:50;;;;;;;;;;;;;;;;;;6253651;22;20445;-64
2022/05/06 11:55:16;;;;;;;;;;;;;;;;;;6269113;22;19911;-61
2022/05/06 11:57:43;;;;;;;;;;;;;;;;;;6264120;22;19992;-62
2022/05/06 12:00:08;;;;;;;;;;;;;;;;;;6255313;22;20334;-61
2022/05/06 12:02:34;;;;;;;;;;;;;;;;;;6266367;22;19915;-61
2022/05/06 12:04:59;;;;;;;;;;;;;;;;;;6266386;22;19990;-61
2022/05/06 12:07:27;;;;;;;;;;;;;;;;;;6255917;22;20586;-62
2022/05/06 12:09:52;;;;;;;;;;;;;;;;;;6266182;22;20014;-62
2022/05/06 12:12:20;;;;;;;;;;;;;;;;;;6230101;22;20417;-63
2022/05/06 12:14:45;;;;;;;;;;;;;;;;;;6229354;22;19915;-61
2022/05/06 12:17:13;;;;;;;;;;;;;;;;;;6266435;22;19911;-61
2022/05/06 12:19:38;;;;;;;;;;;;;;;;;;6265911;22;19922;-61
2022/05/06 12:22:04;;;;;;;;;;;;;;;;;;6264641;22;19910;-62
2022/05/06 12:24:29;;;;;;;;;;;;;;;;;;6253939;22;19911;-61
2022/05/06 12:26:59;;;;;;;;;;;;;;;;;;6229977;22;19962;-61
2022/05/06 12:29:25;;;;;;;;;;;;;;;;;;6152846;22;19944;-61
2022/05/06 12:31:50;;;;;;;;;;;;;;;;;;6131917;23;19962;-61
2022/05/06 12:34:20;;;;;;;;;;;;;;;;;;6139318;23;19917;-61
2022/05/06 12:36:46;;;;;;;;;;;;;;;;;;6233384;22;19909;-62
2022/05/06 12:39:14;;;;;;;;;;;;;;;;;;6233120;22;19958;-61
2022/05/06 12:41:39;;;;;;;;;;;;;;;;;;6232752;22;19935;-62
2022/05/06 12:44:04;;;;;;;;;;;;;;;;;;6234481;22;19955;-61
2022/05/06 12:46:33;;;;;;;;;;;;;;;;;;6232763;22;20224;-61
2022/05/06 12:51:45;;;;;;;;;;;;;;;;;;6140037;23;19966;-62
2022/05/06 12:54:13;;;;;;;;;;;;;;;;;;6141624;23;19912;-61
2022/05/06 12:56:42;;;;;;;;;;;;;;;;;;6209086;22;20008;-62
2022/05/06 12:59:08;;;;;;;;;;;;;;;;;;6141144;23;19947;-63
2022/05/06 13:01:35;;;;;;;;;;;;;;;;;;6241179;22;19909;-61
2022/05/06 13:04:05;;;;;;;;;;;;;;;;;;6240357;22;19913;-60
2022/05/06 13:06:31;;;;;;;;;;;;;;;;;;6233724;22;19917;-61
2022/05/06 13:08:56;;;;;;;;;;;;;;;;;;6245099;22;19970;-60
2022/05/06 13:11:22;;;;;;;;;;;;;;;;;;6142011;23;19928;-61
2022/05/06 13:13:49;;;;;;;;;;;;;;;;;;6141827;23;19908;-62
2022/05/06 13:16:14;;;;;;;;;;;;;;;;;;6141188;23;19999;-61
2022/05/06 13:18:40;;;;;;;;;;;;;;;;;;6140535;23;20352;-62
2022/05/06 13:21:05;;;;;;;;;;;;;;;;;;6234278;22;20667;-61
2022/05/06 13:23:31;;;;;;;;;;;;;;;;;;6140914;23;19935;-61
2022/05/06 13:25:56;;;;;;;;;;;;;;;;;;6208144;23;19950;-62
2022/05/06 13:28:22;;;;;;;;;;;;;;;;;;6232787;22;20333;-62
2022/05/06 13:30:49;;;;;;;;;;;;;;;;;;6140718;23;20368;-61
2022/05/06 13:33:17;;;;;;;;;;;;;;;;;;6208317;22;19908;-60
2022/05/06 13:35:43;;;;;;;;;;;;;;;;;;6231782;22;19950;-60
2022/05/06 13:38:11;;;;;;;;;;;;;;;;;;6233629;22;20128;-59
2022/05/06 13:40:37;;;;;;;;;;;;;;;;;;6233840;22;20010;-60
2022/05/06 13:43:07;;;;;;;;;;;;;;;;;;6131719;23;19908;-59
2022/05/06 13:45:32;;;;;;;;;;;;;;;;;;6237430;22;19912;-59
2022/05/06 13:48:00;;;;;;;;;;;;;;;;;;6232391;22;19913;-60
2022/05/06 13:50:25;;;;;;;;;;;;;;;;;;6143117;23;19936;-61
2022/05/06 13:52:51;;;;;;;;;;;;;;;;;;6141663;23;20003;-62
2022/05/06 13:55:16;;;;;;;;;;;;;;;;;;6235511;22;20448;-61
2022/05/06 14:00:30;;;;;;;;;;;;;;;;;;6234191;22;19923;-62
2022/05/06 14:02:58;;;;;;;;;;;;;;;;;;6141084;23;19913;-61
2022/05/06 14:05:23;;;;;;;;;;;;;;;;;;6233216;22;19966;-61
2022/05/06 14:07:52;;;;;;;;;;;;;;;;;;6243333;22;19983;-61
2022/05/06 14:10:20;;;;;;;;;;;;;;;;;;6209024;22;19935;-59
2022/05/06 14:12:45;;;;;;;;;;;;;;;;;;6141731;23;19916;-60
2022/05/06 14:15:11;;;;;;;;;;;;;;;;;;6236030;22;20379;-61
2022/05/06 14:17:36;;;;;;;;;;;;;;;;;;6140056;23;19923;-61
2022/05/06 14:20:02;;;;;;;;;;;;;;;;;;6234347;22;19916;-61
2022/05/06 14:22:27;;;;;;;;;;;;;;;;;;6142445;23;19921;-61
2022/05/06 14:24:56;;;;;;;;;;;;;;;;;;6234762;22;20514;-60
2022/05/06 14:27:23;;;;;;;;;;;;;;;;;;6141566;23;20011;-60
2022/05/06 14:29:51;;;;;;;;;;;;;;;;;;6242890;22;19948;-61
2022/05/06 14:32:16;;;;;;;;;;;;;;;;;;6233495;22;20547;-61
2022/05/06 14:34:42;;;;;;;;;;;;;;;;;;6140689;23;19921;-61
2022/05/06 14:37:08;;;;;;;;;;;;;;;;;;6141345;23;19913;-62
2022/05/06 14:39:37;;;;;;;;;;;;;;;;;;6140523;23;19944;-62
2022/05/06 14:42:04;;;;;;;;;;;;;;;;;;6235141;22;19987;-61
2022/05/06 14:44:30;;;;;;;;;;;;;;;;;;6142263;23;20069;-62
2022/05/06 14:46:55;;;;;;;;;;;;;;;;;;6210243;22;20288;-62
2022/05/06 14:49:23;;;;;;;;;;;;;;;;;;6140157;23;20142;-61
2022/05/06 14:51:50;;;;;;;;;;;;;;;;;;6209448;23;19917;-61
2022/05/06 14:54:16;;;;;;;;;;;;;;;;;;6131004;23;19919;-65
2022/05/06 14:56:41;;;;;;;;;;;;;;;;;;6132002;23;19913;-61
2022/05/06 14:59:07;;;;;;;;;;;;;;;;;;6131693;23;19915;-61
2022/05/06 15:01:34;;;;;;;;;;;;;;;;;;6233590;22;19916;-62
2022/05/06 15:03:59;;;;;;;;;;;;;;;;;;6232675;22;20487;-62
2022/05/06 15:06:25;;;;;;;;;;;;;;;;;;6141122;23;19912;-61
2022/05/06 15:08:55;;;;;;;;;;;;;;;;;;6141617;23;19983;-60
2022/05/06 15:11:21;;;;;;;;;;;;;;;;;;6234333;22;19940;-61
2022/05/06 15:13:46;;;;;;;;;;;;;;;;;;6233043;22;20292;-61
2022/05/06 15:16:14;;;;;;;;;;;;;;;;;;6208524;23;20015;-60
2022/05/06 15:21:26;;;;;;;;;;;;;;;;;;6234997;22;20034;-61
2022/05/06 15:23:54;;;;;;;;;;;;;;;;;;6141594;23;19914;-61
2022/05/06 15:26:20;;;;;;;;;;;;;;;;;;6132159;23;19976;-62
2022/05/06 15:28:47;;;;;;;;;;;;;;;;;;6141307;22;19921;-62
2022/05/06 15:31:13;;;;;;;;;;;;;;;;;;6131759;22;20130;-61
2022/05/06 15:33:39;;;;;;;;;;;;;;;;;;6129536;23;20622;-62
2022/05/06 15:36:07;;;;;;;;;;;;;;;;;;6244427;22;19923;-61
2022/05/06 15:38:37;;;;;;;;;;;;;;;;;;6210248;22;19916;-61
2022/05/06 15:41:07;;;;;;;;;;;;;;;;;;6143031;23;19912;-61
2022/05/06 15:43:34;;;;;;;;;;;;;;;;;;6131447;23;20499;-59
2022/05/06 15:46:02;;;;;;;;;;;;;;;;;;6233951;22;19908;-60
2022/05/06 15:48:27;;;;;;;;;;;;;;;;;;6141978;23;19975;-62
2022/05/06 15:50:55;;;;;;;;;;;;;;;;;;6141648;23;19909;-62
2022/05/06 15:53:21;;;;;;;;;;;;;;;;;;6234477;22;19913;-61
2022/05/06 15:55:48;;;;;;;;;;;;;;;;;;6234219;22;19958;-61
2022/05/06 15:58:13;;;;;;;;;;;;;;;;;;6245000;22;19976;-60
2022/05/06 16:00:42;;;;;;;;;;;;;;;;;;6234404;22;20456;-62
2022/05/06 16:03:07;;;;;;;;;;;;;;;;;;6208346;22;19921;-60
2022/05/06 16:05:35;;;;;;;;;;;;;;;;;;6235085;22;19987;-62
2022/05/06 16:08:01;;;;;;;;;;;;;;;;;;6207072;23;20516;-59
2022/05/06 16:10:30;;;;;;;;;;;;;;;;;;6141776;23;19924;-61
2022/05/06 16:12:55;;;;;;;;;;;;;;;;;;6140106;23;19909;-61
2022/05/06 16:15:25;;;;;;;;;;;;;;;;;;6209668;23;20736;-61
2022/05/06 16:17:53;;;;;;;;;;;;;;;;;;6232960;22;19995;-61
2022/05/06 16:20:18;;;;;;;;;;;;;;;;;;6141488;23;20042;-60
2022/05/06 16:22:44;;;;;;;;;;;;;;;;;;6232840;22;19917;-60
2022/05/06 16:25:10;;;;;;;;;;;;;;;;;;6142070;23;19915;-61
2022/05/06 16:27:38;;;;;;;;;;;;;;;;;;6141820;23;20396;-59
2022/05/06 16:30:03;;;;;;;;;;;;;;;;;;6235254;22;19970;-59
2022/05/06 16:32:28;;;;;;;;;;;;;;;;;;6142384;23;19997;-60
2022/05/06 16:37:40;;;;;;;;;;;;;;;;;;6233396;22;19916;-59
2022/05/06 16:40:07;;;;;;;;;;;;;;;;;;6235836;22;20076;-60
2022/05/06 16:42:33;;;;;;;;;;;;;;;;;;6140771;23;19924;-58
2022/05/06 16:44:59;;;;;;;;;;;;;;;;;;6244458;22;19920;-60
2022/05/06 16:47:24;;;;;;;;;;;;;;;;;;6233751;22;19908;-60
2022/05/06 16:49:50;;;;;;;;;;;;;;;;;;6140600;23;19916;-61
2022/05/06 16:52:20;;;;;;;;;;;;;;;;;;6209318;22;19909;-60
2022/05/06 16:54:45;;;;;;;;;;;;;;;;;;6234983;22;19917;-61
2022/05/06 16:57:10;;;;;;;;;;;;;;;;;;6208344;23;19916;-60
2022/05/06 16:59:38;;;;;;;;;;;;;;;;;;6131880;23;19912;-60
2022/05/06 17:02:04;;;;;;;;;;;;;;;;;;6142077;23;19912;-60
2022/05/06 17:04:32;;;;;;;;;;;;;;;;;;6131860;22;20640;-61
2022/05/06 17:06:59;;;;;;;;;;;;;;;;;;6210201;22;19908;-61
2022/05/06 17:09:27;;;;;;;;;;;;;;;;;;6141131;23;20410;-62
2022/05/06 17:11:54;;;;;;;;;;;;;;;;;;6240460;22;19996;-61
2022/05/06 17:14:23;;;;;;;;;;;;;;;;;;6141201;23;19908;-65
2022/05/06 17:16:50;;;;;;;;;;;;;;;;;;6208763;22;20015;-61
2022/05/06 17:19:19;;;;;;;;;;;;;;;;;;6140558;23;19920;-61
2022/05/06 17:21:44;;;;;;;;;;;;;;;;;;6232418;22;20652;-61
2022/05/06 17:24:09;;;;;;;;;;;;;;;;;;6141634;23;20529;-59
2022/05/06 17:26:35;;;;;;;;;;;;;;;;;;6141606;23;19909;-61
2022/05/06 17:29:03;;;;;;;;;;;;;;;;;;6142200;22;19950;-61
2022/05/06 17:31:28;;;;;;;;;;;;;;;;;;6209392;23;19943;-60
2022/05/06 17:33:56;;;;;;;;;;;;;;;;;;6140659;23;19992;-60
2022/05/06 17:36:21;;;;;;;;;;;;;;;;;;6141790;23;20251;-60
2022/05/06 17:38:46;;;;;;;;;;;;;;;;;;6243155;22;19916;-60
2022/05/06 17:41:15;;;;;;;;;;;;;;;;;;6233317;22;20387;-60